sensor_id;sensor_type;location;lat;lon;timestamp;P1;durP1;ratioP1;P2;durP2;ratioP2
75680;SDS011;64294;49.176;16.626;2022-11-11T00:00:18;29.50;;;16.13;;
75680;SDS011;64294;49.176;16.626;2022-11-11T00:02:43;29.65;;;16.55;;
75680;SDS011;64294;49.176;16.626;2022-11-11T00:05:09;28.63;;;16.30;;
75680;SDS011;64294;49.176;16.626;2022-11-11T00:07:34;29.15;;;17.08;;
75680;SDS011;64294;49.176;16.626;2022-11-11T00:09:59;32.50;;;16.45;;
75680;SDS011;64294;49.176;16.626;2022-11-11T00:12:25;30.52;;;18.30;;
75680;SDS011;64294;49.176;16.626;2022-11-11T00:14:50;34.70;;;16.77;;
75680;SDS011;64294;49.176;16.626;2022-11-11T00:17:16;33.05;;;17.27;;
75680;SDS011;64294;49.176;16.626;2022-11-11T00:19:59;28.42;;;16.35;;
75680;SDS011;64294;49.176;16.626;2022-11-11T00:22:43;30.30;;;16.15;;
75680;SDS011;64294;49.176;16.626;2022-11-11T00:25:27;30.25;;;16.10;;
75680;SDS011;64294;49.176;16.626;2022-11-11T00:27:54;28.13;;;15.45;;
75680;SDS011;64294;49.176;16.626;2022-11-11T00:30:20;28.85;;;16.20;;
75680;SDS011;64294;49.176;16.626;2022-11-11T00:32:45;30.20;;;17.33;;
75680;SDS011;64294;49.176;16.626;2022-11-11T00:35:10;25.00;;;15.55;;
75680;SDS011;64294;49.176;16.626;2022-11-11T00:37:54;33.05;;;15.77;;
75680;SDS011;64294;49.176;16.626;2022-11-11T00:40:31;28.70;;;15.95;;
75680;SDS011;64294;49.176;16.626;2022-11-11T00:42:56;32.10;;;16.52;;
75680;SDS011;64294;49.176;16.626;2022-11-11T00:45:21;27.73;;;15.48;;
75680;SDS011;64294;49.176;16.626;2022-11-11T00:47:47;28.80;;;15.20;;
75680;SDS011;64294;49.176;16.626;2022-11-11T00:50:30;25.95;;;14.70;;
75680;SDS011;64294;49.176;16.626;2022-11-11T00:53:15;31.95;;;15.75;;
75680;SDS011;64294;49.176;16.626;2022-11-11T00:55:45;29.05;;;15.63;;
75680;SDS011;64294;49.176;16.626;2022-11-11T00:58:10;28.08;;;16.42;;
75680;SDS011;64294;49.176;16.626;2022-11-11T01:00:35;37.05;;;17.92;;
75680;SDS011;64294;49.176;16.626;2022-11-11T01:03:01;31.02;;;17.00;;
75680;SDS011;64294;49.176;16.626;2022-11-11T01:05:26;30.83;;;16.58;;
75680;SDS011;64294;49.176;16.626;2022-11-11T01:07:52;33.42;;;17.85;;
75680;SDS011;64294;49.176;16.626;2022-11-11T01:10:18;25.85;;;15.27;;
75680;SDS011;64294;49.176;16.626;2022-11-11T01:13:03;29.25;;;16.10;;
75680;SDS011;64294;49.176;16.626;2022-11-11T01:15:37;31.55;;;17.05;;
75680;SDS011;64294;49.176;16.626;2022-11-11T01:18:03;27.88;;;16.55;;
75680;SDS011;64294;49.176;16.626;2022-11-11T01:20:28;29.58;;;16.83;;
75680;SDS011;64294;49.176;16.626;2022-11-11T01:22:54;34.78;;;17.48;;
75680;SDS011;64294;49.176;16.626;2022-11-11T01:25:19;29.35;;;17.42;;
75680;SDS011;64294;49.176;16.626;2022-11-11T01:27:44;30.52;;;16.40;;
75680;SDS011;64294;49.176;16.626;2022-11-11T01:30:10;29.15;;;15.80;;
75680;SDS011;64294;49.176;16.626;2022-11-11T01:32:37;28.23;;;15.93;;
75680;SDS011;64294;49.176;16.626;2022-11-11T01:35:03;28.23;;;14.88;;
75680;SDS011;64294;49.176;16.626;2022-11-11T01:37:31;29.52;;;15.82;;
75680;SDS011;64294;49.176;16.626;2022-11-11T01:39:57;29.13;;;15.73;;
75680;SDS011;64294;49.176;16.626;2022-11-11T01:42:22;28.55;;;15.38;;
75680;SDS011;64294;49.176;16.626;2022-11-11T01:44:47;28.52;;;15.68;;
75680;SDS011;64294;49.176;16.626;2022-11-11T01:47:13;31.25;;;15.30;;
75680;SDS011;64294;49.176;16.626;2022-11-11T01:52:18;29.23;;;15.75;;
75680;SDS011;64294;49.176;16.626;2022-11-11T02:00:04;26.92;;;15.00;;
75680;SDS011;64294;49.176;16.626;2022-11-11T02:05:19;29.08;;;15.45;;
75680;SDS011;64294;49.176;16.626;2022-11-11T02:08:06;28.55;;;14.88;;
75680;SDS011;64294;49.176;16.626;2022-11-11T02:10:34;25.75;;;14.50;;
75680;SDS011;64294;49.176;16.626;2022-11-11T02:13:02;27.90;;;14.90;;
75680;SDS011;64294;49.176;16.626;2022-11-11T02:15:46;23.55;;;13.70;;
75680;SDS011;64294;49.176;16.626;2022-11-11T02:18:11;27.85;;;14.60;;
75680;SDS011;64294;49.176;16.626;2022-11-11T02:20:38;28.65;;;14.43;;
75680;SDS011;64294;49.176;16.626;2022-11-11T02:23:08;31.50;;;15.18;;
75680;SDS011;64294;49.176;16.626;2022-11-11T02:25:44;25.92;;;14.20;;
75680;SDS011;64294;49.176;16.626;2022-11-11T02:28:12;28.33;;;14.95;;
75680;SDS011;64294;49.176;16.626;2022-11-11T02:30:38;28.90;;;14.25;;
75680;SDS011;64294;49.176;16.626;2022-11-11T02:33:04;27.88;;;14.52;;
75680;SDS011;64294;49.176;16.626;2022-11-11T02:35:31;28.83;;;14.43;;
75680;SDS011;64294;49.176;16.626;2022-11-11T02:37:58;29.20;;;14.73;;
75680;SDS011;64294;49.176;16.626;2022-11-11T02:40:42;27.85;;;15.50;;
75680;SDS011;64294;49.176;16.626;2022-11-11T02:43:28;28.17;;;13.70;;
75680;SDS011;64294;49.176;16.626;2022-11-11T02:45:55;32.00;;;14.43;;
75680;SDS011;64294;49.176;16.626;2022-11-11T02:48:21;29.20;;;14.50;;
75680;SDS011;64294;49.176;16.626;2022-11-11T02:50:47;25.63;;;13.13;;
75680;SDS011;64294;49.176;16.626;2022-11-11T02:53:12;28.67;;;14.38;;
75680;SDS011;64294;49.176;16.626;2022-11-11T02:55:37;26.80;;;13.93;;
75680;SDS011;64294;49.176;16.626;2022-11-11T02:58:03;25.52;;;13.75;;
75680;SDS011;64294;49.176;16.626;2022-11-11T03:00:28;25.63;;;13.63;;
75680;SDS011;64294;49.176;16.626;2022-11-11T03:02:54;27.48;;;14.30;;
75680;SDS011;64294;49.176;16.626;2022-11-11T03:05:19;31.25;;;13.98;;
75680;SDS011;64294;49.176;16.626;2022-11-11T03:07:45;30.35;;;14.60;;
75680;SDS011;64294;49.176;16.626;2022-11-11T03:10:11;21.60;;;13.25;;
75680;SDS011;64294;49.176;16.626;2022-11-11T03:12:36;25.10;;;13.73;;
75680;SDS011;64294;49.176;16.626;2022-11-11T03:15:02;28.50;;;14.50;;
75680;SDS011;64294;49.176;16.626;2022-11-11T03:17:28;27.75;;;14.10;;
75680;SDS011;64294;49.176;16.626;2022-11-11T03:23:05;25.83;;;12.40;;
75680;SDS011;64294;49.176;16.626;2022-11-11T03:25:31;24.17;;;12.50;;
75680;SDS011;64294;49.176;16.626;2022-11-11T03:28:13;23.23;;;11.48;;
75680;SDS011;64294;49.176;16.626;2022-11-11T03:30:49;23.27;;;11.77;;
75680;SDS011;64294;49.176;16.626;2022-11-11T03:33:15;19.17;;;11.20;;
75680;SDS011;64294;49.176;16.626;2022-11-11T03:35:42;20.83;;;10.65;;
75680;SDS011;64294;49.176;16.626;2022-11-11T03:38:10;22.33;;;11.40;;
75680;SDS011;64294;49.176;16.626;2022-11-11T03:41:03;20.85;;;10.27;;
75680;SDS011;64294;49.176;16.626;2022-11-11T03:43:29;21.20;;;11.23;;
75680;SDS011;64294;49.176;16.626;2022-11-11T03:45:57;18.60;;;11.07;;
75680;SDS011;64294;49.176;16.626;2022-11-11T03:48:24;20.50;;;10.43;;
75680;SDS011;64294;49.176;16.626;2022-11-11T03:50:51;20.85;;;11.13;;
75680;SDS011;64294;49.176;16.626;2022-11-11T03:53:17;20.88;;;11.15;;
75680;SDS011;64294;49.176;16.626;2022-11-11T03:55:50;23.73;;;11.57;;
75680;SDS011;64294;49.176;16.626;2022-11-11T03:58:16;24.10;;;12.52;;
75680;SDS011;64294;49.176;16.626;2022-11-11T04:00:42;22.58;;;12.02;;
75680;SDS011;64294;49.176;16.626;2022-11-11T04:03:12;22.13;;;11.57;;
75680;SDS011;64294;49.176;16.626;2022-11-11T04:05:57;20.70;;;12.18;;
75680;SDS011;64294;49.176;16.626;2022-11-11T04:08:46;19.98;;;10.75;;
75680;SDS011;64294;49.176;16.626;2022-11-11T04:11:32;27.85;;;13.48;;
75680;SDS011;64294;49.176;16.626;2022-11-11T04:14:07;22.02;;;11.50;;
75680;SDS011;64294;49.176;16.626;2022-11-11T04:16:53;20.05;;;11.32;;
75680;SDS011;64294;49.176;16.626;2022-11-11T04:19:19;21.48;;;11.90;;
75680;SDS011;64294;49.176;16.626;2022-11-11T04:22:03;22.17;;;11.60;;
75680;SDS011;64294;49.176;16.626;2022-11-11T04:24:28;22.70;;;11.57;;
75680;SDS011;64294;49.176;16.626;2022-11-11T04:27:14;23.15;;;12.20;;
75680;SDS011;64294;49.176;16.626;2022-11-11T04:29:41;23.90;;;12.40;;
75680;SDS011;64294;49.176;16.626;2022-11-11T04:32:07;20.75;;;12.48;;
75680;SDS011;64294;49.176;16.626;2022-11-11T04:34:56;21.98;;;11.73;;
75680;SDS011;64294;49.176;16.626;2022-11-11T04:37:24;24.10;;;13.70;;
75680;SDS011;64294;49.176;16.626;2022-11-11T04:39:50;20.92;;;13.23;;
75680;SDS011;64294;49.176;16.626;2022-11-11T04:45:00;21.75;;;12.23;;
75680;SDS011;64294;49.176;16.626;2022-11-11T04:48:04;22.50;;;13.15;;
75680;SDS011;64294;49.176;16.626;2022-11-11T04:52:59;23.52;;;13.15;;
75680;SDS011;64294;49.176;16.626;2022-11-11T04:55:25;26.08;;;12.35;;
75680;SDS011;64294;49.176;16.626;2022-11-11T05:00:35;22.35;;;11.88;;
75680;SDS011;64294;49.176;16.626;2022-11-11T05:03:01;26.70;;;14.07;;
75680;SDS011;64294;49.176;16.626;2022-11-11T05:08:43;21.48;;;12.02;;
75680;SDS011;64294;49.176;16.626;2022-11-11T05:13:51;22.17;;;12.77;;
75680;SDS011;64294;49.176;16.626;2022-11-11T05:16:49;23.25;;;12.77;;
75680;SDS011;64294;49.176;16.626;2022-11-11T05:19:35;23.73;;;12.65;;
75680;SDS011;64294;49.176;16.626;2022-11-11T05:25:05;22.52;;;12.52;;
75680;SDS011;64294;49.176;16.626;2022-11-11T05:27:49;21.80;;;12.40;;
75680;SDS011;64294;49.176;16.626;2022-11-11T05:30:16;25.10;;;13.02;;
75680;SDS011;64294;49.176;16.626;2022-11-11T05:32:42;23.83;;;13.02;;
75680;SDS011;64294;49.176;16.626;2022-11-11T05:35:08;31.23;;;13.60;;
75680;SDS011;64294;49.176;16.626;2022-11-11T05:37:36;27.70;;;13.52;;
75680;SDS011;64294;49.176;16.626;2022-11-11T05:40:01;28.65;;;14.27;;
75680;SDS011;64294;49.176;16.626;2022-11-11T05:42:27;28.60;;;13.50;;
75680;SDS011;64294;49.176;16.626;2022-11-11T05:44:52;28.95;;;13.27;;
75680;SDS011;64294;49.176;16.626;2022-11-11T05:47:18;25.20;;;13.95;;
75680;SDS011;64294;49.176;16.626;2022-11-11T05:49:43;23.77;;;12.82;;
75680;SDS011;64294;49.176;16.626;2022-11-11T05:52:09;26.95;;;13.38;;
75680;SDS011;64294;49.176;16.626;2022-11-11T05:54:36;28.80;;;13.10;;
75680;SDS011;64294;49.176;16.626;2022-11-11T05:57:01;25.77;;;14.32;;
75680;SDS011;64294;49.176;16.626;2022-11-11T05:59:27;25.98;;;13.43;;
75680;SDS011;64294;49.176;16.626;2022-11-11T06:01:53;26.17;;;13.43;;
75680;SDS011;64294;49.176;16.626;2022-11-11T06:04:19;24.50;;;12.98;;
75680;SDS011;64294;49.176;16.626;2022-11-11T06:06:44;23.98;;;12.88;;
75680;SDS011;64294;49.176;16.626;2022-11-11T06:09:09;22.63;;;13.02;;
75680;SDS011;64294;49.176;16.626;2022-11-11T06:11:35;27.25;;;13.52;;
75680;SDS011;64294;49.176;16.626;2022-11-11T06:14:00;22.95;;;12.20;;
75680;SDS011;64294;49.176;16.626;2022-11-11T06:16:26;22.10;;;12.60;;
75680;SDS011;64294;49.176;16.626;2022-11-11T06:18:52;22.63;;;11.75;;
75680;SDS011;64294;49.176;16.626;2022-11-11T06:21:17;22.35;;;13.13;;
75680;SDS011;64294;49.176;16.626;2022-11-11T06:23:43;21.50;;;11.65;;
75680;SDS011;64294;49.176;16.626;2022-11-11T06:26:10;19.67;;;10.95;;
75680;SDS011;64294;49.176;16.626;2022-11-11T06:31:03;22.35;;;11.80;;
75680;SDS011;64294;49.176;16.626;2022-11-11T06:33:31;20.85;;;11.55;;
75680;SDS011;64294;49.176;16.626;2022-11-11T06:35:57;18.83;;;11.07;;
75680;SDS011;64294;49.176;16.626;2022-11-11T06:38:22;25.17;;;15.57;;
75680;SDS011;64294;49.176;16.626;2022-11-11T06:40:47;25.35;;;14.98;;
75680;SDS011;64294;49.176;16.626;2022-11-11T06:43:13;24.90;;;14.30;;
75680;SDS011;64294;49.176;16.626;2022-11-11T06:45:38;22.20;;;12.25;;
75680;SDS011;64294;49.176;16.626;2022-11-11T06:48:04;20.55;;;11.05;;
75680;SDS011;64294;49.176;16.626;2022-11-11T06:50:33;22.23;;;11.07;;
75680;SDS011;64294;49.176;16.626;2022-11-11T06:53:05;17.85;;;11.30;;
75680;SDS011;64294;49.176;16.626;2022-11-11T06:55:33;22.20;;;12.63;;
75680;SDS011;64294;49.176;16.626;2022-11-11T06:58:09;22.17;;;12.02;;
75680;SDS011;64294;49.176;16.626;2022-11-11T07:00:40;17.45;;;11.43;;
75680;SDS011;64294;49.176;16.626;2022-11-11T07:03:07;19.85;;;10.93;;
75680;SDS011;64294;49.176;16.626;2022-11-11T07:05:35;20.65;;;12.10;;
75680;SDS011;64294;49.176;16.626;2022-11-11T07:08:01;20.80;;;11.98;;
75680;SDS011;64294;49.176;16.626;2022-11-11T07:10:29;20.70;;;12.63;;
75680;SDS011;64294;49.176;16.626;2022-11-11T07:12:54;23.27;;;11.85;;
75680;SDS011;64294;49.176;16.626;2022-11-11T07:15:20;21.30;;;12.18;;
75680;SDS011;64294;49.176;16.626;2022-11-11T07:17:46;21.92;;;12.05;;
75680;SDS011;64294;49.176;16.626;2022-11-11T07:20:11;24.23;;;12.35;;
75680;SDS011;64294;49.176;16.626;2022-11-11T07:22:36;23.02;;;12.63;;
75680;SDS011;64294;49.176;16.626;2022-11-11T07:25:02;20.40;;;12.43;;
75680;SDS011;64294;49.176;16.626;2022-11-11T07:27:28;22.30;;;13.00;;
75680;SDS011;64294;49.176;16.626;2022-11-11T07:29:53;24.77;;;14.10;;
75680;SDS011;64294;49.176;16.626;2022-11-11T07:32:19;22.05;;;12.45;;
75680;SDS011;64294;49.176;16.626;2022-11-11T07:34:44;23.55;;;12.65;;
75680;SDS011;64294;49.176;16.626;2022-11-11T07:37:10;22.50;;;13.07;;
75680;SDS011;64294;49.176;16.626;2022-11-11T07:39:35;25.65;;;12.65;;
75680;SDS011;64294;49.176;16.626;2022-11-11T07:42:00;24.17;;;12.60;;
75680;SDS011;64294;49.176;16.626;2022-11-11T07:44:26;27.52;;;12.15;;
75680;SDS011;64294;49.176;16.626;2022-11-11T07:46:51;21.50;;;12.30;;
75680;SDS011;64294;49.176;16.626;2022-11-11T07:49:17;23.10;;;11.60;;
75680;SDS011;64294;49.176;16.626;2022-11-11T07:51:42;23.63;;;12.57;;
75680;SDS011;64294;49.176;16.626;2022-11-11T07:54:08;22.63;;;12.35;;
75680;SDS011;64294;49.176;16.626;2022-11-11T07:56:33;23.20;;;12.27;;
75680;SDS011;64294;49.176;16.626;2022-11-11T07:58:58;20.30;;;12.00;;
75680;SDS011;64294;49.176;16.626;2022-11-11T08:01:24;19.08;;;10.85;;
75680;SDS011;64294;49.176;16.626;2022-11-11T08:03:49;23.58;;;12.48;;
75680;SDS011;64294;49.176;16.626;2022-11-11T08:06:18;28.17;;;14.20;;
75680;SDS011;64294;49.176;16.626;2022-11-11T08:08:44;30.33;;;14.13;;
75680;SDS011;64294;49.176;16.626;2022-11-11T08:11:10;23.90;;;13.98;;
75680;SDS011;64294;49.176;16.626;2022-11-11T08:13:36;32.58;;;13.82;;
75680;SDS011;64294;49.176;16.626;2022-11-11T08:16:04;21.85;;;14.15;;
75680;SDS011;64294;49.176;16.626;2022-11-11T08:18:31;27.70;;;14.27;;
75680;SDS011;64294;49.176;16.626;2022-11-11T08:20:57;27.05;;;15.52;;
75680;SDS011;64294;49.176;16.626;2022-11-11T08:23:22;28.02;;;14.35;;
75680;SDS011;64294;49.176;16.626;2022-11-11T08:28:22;26.63;;;14.95;;
75680;SDS011;64294;49.176;16.626;2022-11-11T08:30:47;26.27;;;14.57;;
75680;SDS011;64294;49.176;16.626;2022-11-11T08:33:12;28.60;;;15.68;;
75680;SDS011;64294;49.176;16.626;2022-11-11T08:35:38;27.73;;;14.23;;
75680;SDS011;64294;49.176;16.626;2022-11-11T08:38:03;28.30;;;16.20;;
75680;SDS011;64294;49.176;16.626;2022-11-11T08:40:28;29.27;;;19.25;;
75680;SDS011;64294;49.176;16.626;2022-11-11T08:42:57;29.90;;;18.90;;
75680;SDS011;64294;49.176;16.626;2022-11-11T08:45:23;29.20;;;16.85;;
75680;SDS011;64294;49.176;16.626;2022-11-11T08:47:49;24.25;;;15.00;;
75680;SDS011;64294;49.176;16.626;2022-11-11T08:50:15;22.83;;;13.70;;
75680;SDS011;64294;49.176;16.626;2022-11-11T08:52:47;20.58;;;13.73;;
75680;SDS011;64294;49.176;16.626;2022-11-11T08:55:13;24.02;;;13.10;;
75680;SDS011;64294;49.176;16.626;2022-11-11T08:57:39;22.63;;;13.32;;
75680;SDS011;64294;49.176;16.626;2022-11-11T09:00:04;16.63;;;12.43;;
75680;SDS011;64294;49.176;16.626;2022-11-11T09:02:30;23.63;;;13.10;;
75680;SDS011;64294;49.176;16.626;2022-11-11T09:04:56;17.45;;;12.15;;
75680;SDS011;64294;49.176;16.626;2022-11-11T09:07:21;24.80;;;13.25;;
75680;SDS011;64294;49.176;16.626;2022-11-11T09:09:47;24.40;;;13.02;;
75680;SDS011;64294;49.176;16.626;2022-11-11T09:12:12;18.67;;;11.35;;
75680;SDS011;64294;49.176;16.626;2022-11-11T09:14:37;19.88;;;12.90;;
75680;SDS011;64294;49.176;16.626;2022-11-11T09:17:03;25.55;;;11.82;;
75680;SDS011;64294;49.176;16.626;2022-11-11T09:19:29;24.08;;;13.15;;
75680;SDS011;64294;49.176;16.626;2022-11-11T09:21:54;26.63;;;13.60;;
75680;SDS011;64294;49.176;16.626;2022-11-11T09:24:20;19.88;;;12.63;;
75680;SDS011;64294;49.176;16.626;2022-11-11T09:26:48;24.38;;;13.10;;
75680;SDS011;64294;49.176;16.626;2022-11-11T09:29:14;25.63;;;13.70;;
75680;SDS011;64294;49.176;16.626;2022-11-11T09:31:39;24.70;;;12.60;;
75680;SDS011;64294;49.176;16.626;2022-11-11T09:34:05;25.63;;;12.90;;
75680;SDS011;64294;49.176;16.626;2022-11-11T09:36:31;31.98;;;15.23;;
75680;SDS011;64294;49.176;16.626;2022-11-11T09:38:57;58.75;;;17.08;;
75680;SDS011;64294;49.176;16.626;2022-11-11T09:55:56;31.63;;;15.68;;
75680;SDS011;64294;49.176;16.626;2022-11-11T09:58:05;35.03;;;15.05;;
75680;SDS011;64294;49.176;16.626;2022-11-11T10:00:36;28.70;;;14.98;;
75680;SDS011;64294;49.176;16.626;2022-11-11T10:08:22;36.90;;;16.90;;
75680;SDS011;64294;49.176;16.626;2022-11-11T10:10:51;45.97;;;15.75;;
75680;SDS011;64294;49.176;16.626;2022-11-11T10:21:50;38.65;;;14.05;;
75680;SDS011;64294;49.176;16.626;2022-11-11T10:24:37;32.08;;;13.32;;
75680;SDS011;64294;49.176;16.626;2022-11-11T10:27:13;30.08;;;12.30;;
75680;SDS011;64294;49.176;16.626;2022-11-11T10:29:42;35.05;;;13.57;;
75680;SDS011;64294;49.176;16.626;2022-11-11T10:40:33;33.95;;;12.00;;
75680;SDS011;64294;49.176;16.626;2022-11-11T10:43:03;37.70;;;12.30;;
75680;SDS011;64294;49.176;16.626;2022-11-11T10:45:30;20.17;;;11.77;;
75680;SDS011;64294;49.176;16.626;2022-11-11T10:48:08;21.13;;;11.25;;
75680;SDS011;64294;49.176;16.626;2022-11-11T10:50:39;18.65;;;11.32;;
75680;SDS011;64294;49.176;16.626;2022-11-11T10:53:11;19.70;;;11.43;;
75680;SDS011;64294;49.176;16.626;2022-11-11T10:55:45;36.05;;;12.88;;
75680;SDS011;64294;49.176;16.626;2022-11-11T10:58:21;46.20;;;12.88;;
75680;SDS011;64294;49.176;16.626;2022-11-11T11:00:52;23.50;;;12.13;;
75680;SDS011;64294;49.176;16.626;2022-11-11T11:03:24;35.10;;;13.20;;
75680;SDS011;64294;49.176;16.626;2022-11-11T11:05:58;23.15;;;11.85;;
75680;SDS011;64294;49.176;16.626;2022-11-11T11:08:33;36.60;;;12.85;;
75680;SDS011;64294;49.176;16.626;2022-11-11T11:11:22;29.75;;;12.07;;
75680;SDS011;64294;49.176;16.626;2022-11-11T11:14:02;34.38;;;12.88;;
75680;SDS011;64294;49.176;16.626;2022-11-11T11:16:35;36.08;;;12.00;;
75680;SDS011;64294;49.176;16.626;2022-11-11T11:19:20;24.17;;;11.88;;
75680;SDS011;64294;49.176;16.626;2022-11-11T11:21:51;26.92;;;12.13;;
75680;SDS011;64294;49.176;16.626;2022-11-11T11:24:18;30.02;;;11.88;;
75680;SDS011;64294;49.176;16.626;2022-11-11T11:26:45;29.38;;;12.25;;
75680;SDS011;64294;49.176;16.626;2022-11-11T11:29:12;28.33;;;11.88;;
75680;SDS011;64294;49.176;16.626;2022-11-11T11:31:47;24.73;;;12.07;;
75680;SDS011;64294;49.176;16.626;2022-11-11T11:34:13;19.00;;;12.20;;
75680;SDS011;64294;49.176;16.626;2022-11-11T11:36:38;17.02;;;11.77;;
75680;SDS011;64294;49.176;16.626;2022-11-11T11:39:03;17.10;;;11.50;;
75680;SDS011;64294;49.176;16.626;2022-11-11T11:41:36;17.80;;;12.60;;
75680;SDS011;64294;49.176;16.626;2022-11-11T11:55:34;16.00;;;11.95;;
75680;SDS011;64294;49.176;16.626;2022-11-11T12:00:42;17.70;;;11.02;;
75680;SDS011;64294;49.176;16.626;2022-11-11T12:03:43;15.52;;;10.25;;
75680;SDS011;64294;49.176;16.626;2022-11-11T12:26:18;20.52;;;11.65;;
75680;SDS011;64294;49.176;16.626;2022-11-11T12:34:19;25.75;;;11.63;;
75680;SDS011;64294;49.176;16.626;2022-11-11T12:50:25;22.23;;;11.18;;
75680;SDS011;64294;49.176;16.626;2022-11-11T12:58:53;16.55;;;11.20;;
75680;SDS011;64294;49.176;16.626;2022-11-11T13:09:49;20.70;;;11.65;;
75680;SDS011;64294;49.176;16.626;2022-11-11T13:15:19;24.65;;;12.10;;
75680;SDS011;64294;49.176;16.626;2022-11-11T13:17:46;39.92;;;12.43;;
75680;SDS011;64294;49.176;16.626;2022-11-11T13:20:24;30.35;;;11.95;;
75680;SDS011;64294;49.176;16.626;2022-11-11T13:23:14;18.40;;;10.02;;
75680;SDS011;64294;49.176;16.626;2022-11-11T13:25:40;15.57;;;10.23;;
75680;SDS011;64294;49.176;16.626;2022-11-11T13:34:09;19.08;;;10.40;;
75680;SDS011;64294;49.176;16.626;2022-11-11T13:36:40;14.82;;;9.57;;
75680;SDS011;64294;49.176;16.626;2022-11-11T13:39:17;18.65;;;9.95;;
75680;SDS011;64294;49.176;16.626;2022-11-11T13:42:08;15.18;;;10.18;;
75680;SDS011;64294;49.176;16.626;2022-11-11T13:44:48;24.75;;;10.07;;
75680;SDS011;64294;49.176;16.626;2022-11-11T13:47:23;22.17;;;10.02;;
75680;SDS011;64294;49.176;16.626;2022-11-11T13:52:57;34.72;;;11.25;;
75680;SDS011;64294;49.176;16.626;2022-11-11T13:55:41;23.60;;;10.38;;
75680;SDS011;64294;49.176;16.626;2022-11-11T13:58:25;19.47;;;9.97;;
75680;SDS011;64294;49.176;16.626;2022-11-11T14:00:56;19.05;;;10.02;;
75680;SDS011;64294;49.176;16.626;2022-11-11T14:06:13;18.43;;;9.30;;
75680;SDS011;64294;49.176;16.626;2022-11-11T14:13:50;18.38;;;8.80;;
75680;SDS011;64294;49.176;16.626;2022-11-11T14:17:02;13.38;;;8.50;;
75680;SDS011;64294;49.176;16.626;2022-11-11T14:24:47;13.95;;;8.20;;
75680;SDS011;64294;49.176;16.626;2022-11-11T14:27:17;105.47;;;26.60;;
75680;SDS011;64294;49.176;16.626;2022-11-11T14:29:52;222.80;;;41.70;;
75680;SDS011;64294;49.176;16.626;2022-11-11T14:40:42;43.47;;;12.07;;
75680;SDS011;64294;49.176;16.626;2022-11-11T14:46:18;19.60;;;10.35;;
75680;SDS011;64294;49.176;16.626;2022-11-11T14:51:34;22.75;;;9.88;;
75680;SDS011;64294;49.176;16.626;2022-11-11T14:54:04;18.17;;;9.32;;
75680;SDS011;64294;49.176;16.626;2022-11-11T14:56:39;20.60;;;10.50;;
75680;SDS011;64294;49.176;16.626;2022-11-11T14:59:06;19.77;;;9.88;;
75680;SDS011;64294;49.176;16.626;2022-11-11T15:01:33;19.35;;;10.25;;
75680;SDS011;64294;49.176;16.626;2022-11-11T15:04:00;18.90;;;10.40;;
75680;SDS011;64294;49.176;16.626;2022-11-11T15:09:25;21.42;;;10.88;;
75680;SDS011;64294;49.176;16.626;2022-11-11T15:17:56;17.80;;;9.93;;
75680;SDS011;64294;49.176;16.626;2022-11-11T15:23:29;19.08;;;10.48;;
75680;SDS011;64294;49.176;16.626;2022-11-11T15:37:01;20.42;;;10.93;;
75680;SDS011;64294;49.176;16.626;2022-11-11T15:39:36;23.48;;;10.90;;
75680;SDS011;64294;49.176;16.626;2022-11-11T15:42:05;182.68;;;26.17;;
75680;SDS011;64294;49.176;16.626;2022-11-11T15:44:57;287.27;;;36.83;;
75680;SDS011;64294;49.176;16.626;2022-11-11T15:47:26;92.72;;;18.48;;
75680;SDS011;64294;49.176;16.626;2022-11-11T15:49:53;42.50;;;14.02;;
75680;SDS011;64294;49.176;16.626;2022-11-11T15:54:48;38.30;;;13.32;;
75680;SDS011;64294;49.176;16.626;2022-11-11T15:59:51;46.00;;;17.30;;
75680;SDS011;64294;49.176;16.626;2022-11-11T16:02:21;54.83;;;24.77;;
75680;SDS011;64294;49.176;16.626;2022-11-11T16:04:56;48.95;;;17.77;;
75680;SDS011;64294;49.176;16.626;2022-11-11T16:07:25;33.50;;;15.48;;
75680;SDS011;64294;49.176;16.626;2022-11-11T16:09:56;40.78;;;15.15;;
75680;SDS011;64294;49.176;16.626;2022-11-11T16:12:24;27.95;;;13.05;;
75680;SDS011;64294;49.176;16.626;2022-11-11T16:14:55;32.92;;;14.27;;
75680;SDS011;64294;49.176;16.626;2022-11-11T16:17:25;30.88;;;15.57;;
75680;SDS011;64294;49.176;16.626;2022-11-11T16:19:54;27.70;;;13.85;;
75680;SDS011;64294;49.176;16.626;2022-11-11T16:22:22;37.70;;;15.43;;
75680;SDS011;64294;49.176;16.626;2022-11-11T16:24:51;26.13;;;14.00;;
75680;SDS011;64294;49.176;16.626;2022-11-11T16:27:27;28.30;;;14.38;;
75680;SDS011;64294;49.176;16.626;2022-11-11T16:29:54;26.58;;;13.70;;
75680;SDS011;64294;49.176;16.626;2022-11-11T16:34:48;36.95;;;16.30;;
75680;SDS011;64294;49.176;16.626;2022-11-11T16:37:15;36.20;;;16.55;;
75680;SDS011;64294;49.176;16.626;2022-11-11T16:39:42;40.10;;;15.85;;
75680;SDS011;64294;49.176;16.626;2022-11-11T16:42:29;34.13;;;15.50;;
75680;SDS011;64294;49.176;16.626;2022-11-11T16:44:56;37.33;;;17.33;;
75680;SDS011;64294;49.176;16.626;2022-11-11T16:55:30;28.23;;;15.15;;
75680;SDS011;64294;49.176;16.626;2022-11-11T16:58:00;27.58;;;14.98;;
75680;SDS011;64294;49.176;16.626;2022-11-11T17:00:34;27.02;;;15.32;;
75680;SDS011;64294;49.176;16.626;2022-11-11T17:03:08;28.42;;;14.60;;
75680;SDS011;64294;49.176;16.626;2022-11-11T17:05:49;29.33;;;15.60;;
75680;SDS011;64294;49.176;16.626;2022-11-11T17:10:55;32.00;;;15.82;;
75680;SDS011;64294;49.176;16.626;2022-11-11T17:13:21;32.88;;;15.25;;
75680;SDS011;64294;49.176;16.626;2022-11-11T17:15:46;26.23;;;14.85;;
75680;SDS011;64294;49.176;16.626;2022-11-11T17:18:11;25.50;;;15.13;;
75680;SDS011;64294;49.176;16.626;2022-11-11T17:20:38;28.17;;;15.20;;
75680;SDS011;64294;49.176;16.626;2022-11-11T17:23:03;32.55;;;17.63;;
75680;SDS011;64294;49.176;16.626;2022-11-11T17:25:30;28.50;;;17.08;;
75680;SDS011;64294;49.176;16.626;2022-11-11T17:27:55;37.40;;;18.20;;
75680;SDS011;64294;49.176;16.626;2022-11-11T17:30:21;34.10;;;18.48;;
75680;SDS011;64294;49.176;16.626;2022-11-11T17:32:46;31.60;;;16.40;;
75680;SDS011;64294;49.176;16.626;2022-11-11T17:35:13;35.03;;;18.10;;
75680;SDS011;64294;49.176;16.626;2022-11-11T17:37:38;29.02;;;16.75;;
75680;SDS011;64294;49.176;16.626;2022-11-11T17:40:08;27.48;;;16.80;;
75680;SDS011;64294;49.176;16.626;2022-11-11T17:42:34;29.25;;;16.73;;
75680;SDS011;64294;49.176;16.626;2022-11-11T17:45:01;31.33;;;17.15;;
75680;SDS011;64294;49.176;16.626;2022-11-11T17:47:27;35.03;;;19.88;;
75680;SDS011;64294;49.176;16.626;2022-11-11T17:49:53;42.47;;;20.63;;
75680;SDS011;64294;49.176;16.626;2022-11-11T17:52:18;41.13;;;21.50;;
75680;SDS011;64294;49.176;16.626;2022-11-11T17:54:43;33.72;;;20.55;;
75680;SDS011;64294;49.176;16.626;2022-11-11T17:57:09;35.28;;;19.92;;
75680;SDS011;64294;49.176;16.626;2022-11-11T17:59:34;44.10;;;21.45;;
75680;SDS011;64294;49.176;16.626;2022-11-11T18:02:00;42.47;;;21.70;;